Time;durP1;ratioP1;P1;durP2;ratioP2;P2;SDS_P1;SDS_P2;PMS_P1;PMS_P2;Temp;Humidity;BMP_temperature;BMP_pressure;BME280_temperature;BME280_humidity;BME280_pressure;Samples;Min_cycle;Max_cycle;Signal;HPM_P1;HPM_P2
2024/01/26 00:01:33;;;;;;;19.77;4.72;;;;;;;3.69;nan;101058.47;5034785;28;20499;-71
2024/01/26 00:03:59;;;;;;;18.58;4.78;;;;;;;3.56;nan;101046.78;5040819;28;20120;-71
2024/01/26 00:06:24;;;;;;;15.98;4.22;;;;;;;3.58;nan;101055.22;5036308;28;20094;-70
2024/01/26 00:08:53;;;;;;;12.25;4.53;;;;;;;3.60;nan;101055.09;5039005;28;20035;-68
2024/01/26 00:11:19;;;;;;;15.80;4.85;;;;;;;3.55;nan;101050.34;5036782;28;20021;-69
2024/01/26 00:13:45;;;;;;;13.73;4.00;;;;;;;3.60;nan;101061.09;5037871;28;20132;-69
2024/01/26 00:16:10;;;;;;;14.30;4.60;;;;;;;3.49;nan;101061.41;5035230;28;20052;-72
2024/01/26 00:18:36;;;;;;;12.68;4.32;;;;;;;3.53;nan;101067.13;5038176;28;20033;-72
2024/01/26 00:21:05;;;;;;;15.35;4.43;;;;;;;3.58;nan;101076.06;5038049;28;20474;-71
2024/01/26 00:23:30;;;;;;;17.50;4.47;;;;;;;3.61;nan;101080.13;5036169;28;20026;-71
2024/01/26 00:25:57;;;;;;;16.30;4.40;;;;;;;3.59;nan;101093.34;5037575;28;20029;-69
2024/01/26 00:28:31;;;;;;;11.65;3.88;;;;;;;3.56;nan;101085.81;5035139;28;20029;-72
2024/01/26 00:30:56;;;;;;;15.88;4.47;;;;;;;3.58;nan;101085.69;5035561;28;20738;-71
2024/01/26 00:33:22;;;;;;;13.82;4.40;;;;;;;3.49;nan;101081.44;5037297;28;20108;-71
2024/01/26 00:35:50;;;;;;;14.23;4.30;;;;;;;3.57;nan;101099.69;5020253;28;20018;-70
2024/01/26 00:38:16;;;;;;;17.77;4.67;;;;;;;3.62;nan;101113.84;5033089;28;20041;-71
2024/01/26 00:40:41;;;;;;;12.77;4.63;;;;;;;3.51;nan;101097.72;5039999;28;20107;-71
2024/01/26 00:43:07;;;;;;;16.65;4.50;;;;;;;3.58;nan;101109.91;5034600;28;20028;-71
2024/01/26 00:45:32;;;;;;;15.57;4.57;;;;;;;3.51;nan;101100.31;5034451;28;20032;-69
2024/01/26 00:47:58;;;;;;;18.52;4.32;;;;;;;3.49;nan;101102.25;5038299;28;20045;-71
2024/01/26 00:50:23;;;;;;;15.90;4.82;;;;;;;3.32;nan;101073.59;5039075;28;20032;-71
2024/01/26 00:52:49;;;;;;;17.65;4.13;;;;;;;3.34;nan;101076.84;5037278;28;20045;-72
2024/01/26 00:55:14;;;;;;;14.95;4.18;;;;;;;3.46;nan;101094.78;5039259;28;20033;-72
2024/01/26 00:57:45;;;;;;;15.88;3.70;;;;;;;3.48;nan;101104.06;5036330;28;20109;-69
2024/01/26 01:00:12;;;;;;;12.13;4.25;;;;;;;3.53;nan;101116.59;5035032;28;20396;-71
2024/01/26 01:02:40;;;;;;;17.30;4.35;;;;;;;3.56;nan;101127.50;5038008;28;20379;-68
2024/01/26 01:05:06;;;;;;;13.32;4.78;;;;;;;3.49;nan;101108.28;5035086;28;21028;-71
2024/01/26 01:07:32;;;;;;;12.88;4.72;;;;;;;3.38;nan;101099.00;5037293;28;20125;-73
2024/01/26 01:09:57;;;;;;;17.70;3.90;;;;;;;3.56;nan;101124.88;5038001;28;20430;-72
2024/01/26 01:12:29;;;;;;;11.45;3.92;;;;;;;3.51;nan;101115.94;5034230;28;20051;-70
2024/01/26 01:14:55;;;;;;;12.90;3.97;;;;;;;3.50;nan;101125.53;5037279;28;20021;-68
2024/01/26 01:17:25;;;;;;;13.73;3.95;;;;;;;3.49;nan;101121.28;5034834;28;20017;-73
2024/01/26 01:19:51;;;;;;;13.82;4.10;;;;;;;3.52;nan;101127.97;5037475;28;20059;-71
2024/01/26 01:22:22;;;;;;;17.40;4.22;;;;;;;3.50;nan;101141.16;5036116;28;20025;-71
2024/01/26 01:24:48;;;;;;;14.00;4.30;;;;;;;3.48;nan;101131.91;5038991;28;20495;-72
2024/01/26 01:27:13;;;;;;;17.85;4.18;;;;;;;3.45;nan;101129.59;5040155;28;20033;-72
2024/01/26 01:29:39;;;;;;;18.30;4.50;;;;;;;3.43;nan;101132.38;5041551;28;20539;-72
2024/01/26 01:32:04;;;;;;;11.73;3.45;;;;;;;3.43;nan;101123.75;5040434;28;20033;-71
2024/01/26 01:34:30;;;;;;;17.10;4.20;;;;;;;3.26;nan;101121.09;5038056;28;20032;-72
2024/01/26 01:36:56;;;;;;;17.08;4.47;;;;;;;3.25;nan;101123.84;5036028;28;20530;-71
2024/01/26 01:39:21;;;;;;;13.45;3.67;;;;;;;3.28;nan;101128.75;5042694;28;20032;-73
2024/01/26 01:41:48;;;;;;;16.90;4.22;;;;;;;3.23;nan;101131.81;5037830;28;20025;-71
2024/01/26 01:44:14;;;;;;;15.38;4.20;;;;;;;3.20;nan;101130.34;5038643;28;20025;-71
2024/01/26 01:46:39;;;;;;;14.73;3.97;;;;;;;3.27;nan;101140.13;5041693;28;20040;-71
2024/01/26 01:49:05;;;;;;;13.50;3.92;;;;;;;3.24;nan;101130.06;5038233;28;20102;-70
2024/01/26 01:51:33;;;;;;;17.23;4.30;;;;;;;3.22;nan;101130.19;5042761;28;20029;-70
2024/01/26 01:53:59;;;;;;;17.42;4.28;;;;;;;3.20;nan;101132.13;5037042;28;20018;-72
2024/01/26 01:56:27;;;;;;;10.32;3.97;;;;;;;3.11;nan;101126.13;5047036;28;20035;-71
2024/01/26 01:58:53;;;;;;;14.35;3.70;;;;;;;3.24;nan;101133.47;5039791;28;20407;-71
2024/01/26 02:01:19;;;;;;;16.08;4.20;;;;;;;3.26;nan;101141.13;5037678;28;20110;-71
2024/01/26 02:03:44;;;;;;;16.55;4.28;;;;;;;3.19;nan;101135.72;5037528;28;20021;-72
2024/01/26 02:06:10;;;;;;;13.95;4.28;;;;;;;3.19;nan;101135.72;5038462;28;20033;-71
2024/01/26 02:08:35;;;;;;;18.00;4.22;;;;;;;3.16;nan;101133.41;5037071;28;20036;-70
2024/01/26 02:11:01;;;;;;;18.08;4.13;;;;;;;2.91;nan;101099.53;5039325;28;20037;-70
2024/01/26 02:13:26;;;;;;;15.60;3.65;;;;;;;3.12;nan;101137.34;5037106;28;20014;-71
2024/01/26 02:15:51;;;;;;;10.45;3.72;;;;;;;3.07;nan;101139.59;5038295;28;20510;-70
2024/01/26 02:18:17;;;;;;;14.05;4.28;;;;;;;3.02;nan;101129.66;5035828;28;20400;-70
2024/01/26 02:20:42;;;;;;;14.65;4.10;;;;;;;2.96;nan;101132.88;5038120;28;20029;-70
2024/01/26 02:23:08;;;;;;;11.98;3.90;;;;;;;2.96;nan;101141.47;5039669;28;20029;-71
2024/01/26 02:25:33;;;;;;;16.50;4.45;;;;;;;2.97;nan;101140.53;5039099;28;20162;-72
2024/01/26 02:27:59;;;;;;;18.65;4.50;;;;;;;2.87;nan;101132.00;5041162;28;20124;-72
2024/01/26 02:30:24;;;;;;;11.07;3.35;;;;;;;2.87;nan;101139.00;5054404;28;20032;-72
2024/01/26 02:32:49;;;;;;;15.88;3.88;;;;;;;2.84;nan;101139.31;5042209;28;20076;-71
2024/01/26 02:35:15;;;;;;;18.98;4.00;;;;;;;2.86;nan;101148.59;5054271;28;20060;-71
2024/01/26 02:37:40;;;;;;;15.00;3.67;;;;;;;2.54;nan;101105.88;5057857;28;20044;-71
2024/01/26 02:40:09;;;;;;;13.55;3.92;;;;;;;2.76;nan;101140.09;5050797;28;20020;-70
2024/01/26 02:42:34;;;;;;;13.90;4.00;;;;;;;2.80;nan;101157.00;5066427;28;20026;-72
2024/01/26 02:45:00;;;;;;;16.73;4.28;;;;;;;2.71;nan;101155.38;5054037;28;20593;-76
2024/01/26 02:47:25;;;;;;;14.68;4.00;;;;;;;2.71;nan;101160.56;5040142;28;20424;-71
2024/01/26 02:49:51;;;;;;;13.55;3.97;;;;;;;2.55;nan;101159.50;5038291;28;20029;-70
2024/01/26 02:52:16;;;;;;;16.52;4.30;;;;;;;2.65;nan;101166.38;5037072;28;20017;-70
2024/01/26 02:54:45;;;;;;;11.52;4.47;;;;;;;2.55;nan;101161.28;5038887;28;20387;-69
2024/01/26 02:57:10;;;;;;;14.48;3.58;;;;;;;2.44;nan;101148.53;5037973;28;20013;-72
2024/01/26 02:59:36;;;;;;;15.02;3.67;;;;;;;2.52;nan;101170.19;5040078;28;20375;-69
2024/01/26 03:02:01;;;;;;;8.07;4.07;;;;;;;2.41;nan;101157.44;5037872;28;20060;-69
2024/01/26 03:04:29;;;;;;;10.05;3.90;;;;;;;2.54;nan;101172.66;5038317;28;20054;-70
2024/01/26 03:06:56;;;;;;;9.55;3.67;;;;;;;2.46;nan;101162.19;5039660;28;20051;-70
2024/01/26 03:09:22;;;;;;;14.13;4.13;;;;;;;2.28;nan;101131.06;5036407;28;20037;-71
2024/01/26 03:11:47;;;;;;;17.25;4.18;;;;;;;2.26;nan;101139.00;5036841;28;20029;-71
2024/01/26 03:14:15;;;;;;;13.85;4.07;;;;;;;2.37;nan;101168.28;5033587;28;20034;-70
2024/01/26 03:16:41;;;;;;;15.63;3.83;;;;;;;2.36;nan;101164.88;5037329;28;20482;-71
2024/01/26 03:19:09;;;;;;;13.20;3.63;;;;;;;2.34;nan;101172.03;5038213;28;20021;-69
2024/01/26 03:21:43;;;;;;;16.92;3.85;;;;;;;2.34;nan;101179.81;5036789;28;20112;-72
2024/01/26 03:24:08;;;;;;;14.13;3.97;;;;;;;2.23;nan;101162.69;5039080;28;20370;-71
2024/01/26 03:26:34;;;;;;;12.57;3.83;;;;;;;2.24;nan;101160.91;5036802;28;20029;-70
2024/01/26 03:29:01;;;;;;;11.82;3.40;;;;;;;2.33;nan;101179.00;5035764;28;20039;-71
2024/01/26 03:31:29;;;;;;;12.13;3.58;;;;;;;2.36;nan;101188.28;5042009;28;20115;-69
2024/01/26 03:33:55;;;;;;;12.80;3.33;;;;;;;2.39;nan;101192.38;5036380;28;20018;-71
2024/01/26 03:36:21;;;;;;;17.23;3.90;;;;;;;2.11;nan;101150.91;5036505;28;20029;-70
2024/01/26 03:38:47;;;;;;;12.27;3.65;;;;;;;2.28;nan;101173.44;5037932;28;20084;-70
2024/01/26 03:41:13;;;;;;;16.13;4.38;;;;;;;2.38;nan;101191.56;5036056;28;20033;-70
2024/01/26 03:43:38;;;;;;;15.63;3.72;;;;;;;2.30;nan;101181.91;5034301;28;20083;-71
2024/01/26 03:46:08;;;;;;;14.57;4.40;;;;;;;2.36;nan;101188.28;5035873;28;20045;-71
2024/01/26 03:48:34;;;;;;;12.73;4.55;;;;;;;2.30;nan;101186.31;5036865;28;20028;-71
2024/01/26 03:50:59;;;;;;;11.88;4.05;;;;;;;2.23;nan;101178.28;5039116;28;20024;-72
2024/01/26 03:53:25;;;;;;;13.52;4.30;;;;;;;2.29;nan;101188.06;5038107;28;20104;-71
2024/01/26 03:55:54;;;;;;;15.00;4.53;;;;;;;2.25;nan;101184.16;5033518;28;20025;-70
2024/01/26 03:58:25;;;;;;;16.88;3.85;;;;;;;2.25;nan;101191.94;5038761;28;20025;-70
2024/01/26 04:00:54;;;;;;;13.15;4.22;;;;;;;2.25;nan;101189.34;5053746;28;20040;-70
2024/01/26 04:03:19;;;;;;;9.33;3.57;;;;;;;2.10;nan;101172.66;5035907;28;20180;-71
2024/01/26 04:05:45;;;;;;;16.45;3.80;;;;;;;2.12;nan;101188.91;5048615;28;20684;-73
2024/01/26 04:08:12;;;;;;;16.30;4.07;;;;;;;2.11;nan;101195.91;5039004;28;20044;-70
2024/01/26 04:10:37;;;;;;;10.77;3.78;;;;;;;2.07;nan;101191.16;5040236;28;20025;-71
2024/01/26 04:13:11;;;;;;;13.73;3.45;;;;;;;2.04;nan;101181.88;5037068;28;20406;-72
2024/01/26 04:15:37;;;;;;;10.25;3.65;;;;;;;2.03;nan;101182.00;5044681;28;20132;-69
2024/01/26 04:18:03;;;;;;;9.90;3.70;;;;;;;2.00;nan;101184.91;5036065;28;20025;-70
2024/01/26 04:20:28;;;;;;;12.43;3.85;;;;;;;1.95;nan;101185.34;5038964;28;20403;-71
2024/01/26 04:22:54;;;;;;;13.38;3.70;;;;;;;1.91;nan;101182.22;5035417;28;20025;-70
2024/01/26 04:25:22;;;;;;;16.33;4.10;;;;;;;1.95;nan;101181.94;5036676;28;20020;-71
2024/01/26 04:27:47;;;;;;;12.52;3.80;;;;;;;2.01;nan;101196.94;5037349;28;20033;-72
2024/01/26 04:30:14;;;;;;;16.10;4.18;;;;;;;1.97;nan;101198.22;5039849;28;20497;-71
2024/01/26 04:32:39;;;;;;;7.47;3.35;;;;;;;2.01;nan;101207.31;5039444;28;20508;-71
2024/01/26 04:35:05;;;;;;;13.88;4.25;;;;;;;2.02;nan;101211.56;5031990;28;20033;-72
2024/01/26 04:37:30;;;;;;;13.13;4.18;;;;;;;2.00;nan;101219.50;5037806;28;20072;-73
2024/01/26 04:39:56;;;;;;;16.45;4.50;;;;;;;1.96;nan;101214.75;5033698;28;20120;-70
2024/01/26 04:42:22;;;;;;;20.73;7.65;;;;;;;1.90;nan;101210.97;5039019;28;20057;-71
2024/01/26 04:44:47;;;;;;;19.08;7.07;;;;;;;1.81;nan;101204.06;5035559;28;20098;-72
2024/01/26 04:47:13;;;;;;;22.70;7.40;;;;;;;1.81;nan;101223.03;5037260;28;20029;-71
2024/01/26 04:49:38;;;;;;;13.23;5.65;;;;;;;1.78;nan;101223.34;5042111;28;20029;-69
2024/01/26 04:52:04;;;;;;;20.30;6.15;;;;;;;1.60;nan;101201.72;5036775;28;20061;-71
2024/01/26 04:54:32;;;;;;;14.70;6.25;;;;;;;1.64;nan;101229.03;5038340;28;20050;-71
2024/01/26 04:56:58;;;;;;;16.87;6.10;;;;;;;1.61;nan;101230.16;5043738;28;20033;-72
2024/01/26 04:59:23;;;;;;;19.63;6.22;;;;;;;1.40;nan;101207.03;5044786;28;20274;-72
2024/01/26 05:01:48;;;;;;;14.82;5.90;;;;;;;;;;5039293;28;20475;-72
2024/01/26 05:04:14;;;;;;;15.40;6.10;;;;;;;;;;5045721;28;20483;-70
2024/01/26 05:06:39;;;;;;;15.10;5.70;;;;;;;;;;5040842;28;20065;-72
2024/01/26 05:09:05;;;;;;;18.42;6.20;;;;;;;;;;5040086;28;20112;-73
2024/01/26 05:11:30;;;;;;;11.57;5.78;;;;;;;;;;5038873;28;20112;-72
2024/01/26 05:13:55;;;;;;;18.88;6.30;;;;;;;;;;5047236;28;20071;-72
2024/01/26 05:16:21;;;;;;;16.63;5.88;;;;;;;;;;5042552;28;20430;-73
2024/01/26 05:18:46;;;;;;;16.20;6.00;;;;;;;;;;5039155;28;20064;-73
2024/01/26 05:21:11;;;;;;;15.43;6.88;;;;;;;;;;5039097;28;20056;-73
2024/01/26 05:23:37;;;;;;;16.88;6.28;;;;;;;;;;5041841;28;20040;-73
2024/01/26 05:26:02;;;;;;;16.70;6.05;;;;;;;;;;5040096;28;20041;-72
2024/01/26 05:28:27;;;;;;;16.92;6.90;;;;;;;1.01;nan;101245.31;5039067;28;20029;-72
2024/01/26 05:30:53;;;;;;;22.67;6.80;;;;;;;0.93;nan;101247.75;5040061;28;20048;-72
2024/01/26 05:33:19;;;;;;;19.45;7.10;;;;;;;0.87;nan;101235.38;5038520;28;20060;-72
2024/01/26 05:35:45;;;;;;;13.85;6.35;;;;;;;0.97;nan;101262.09;5043520;28;20465;-72
2024/01/26 05:38:11;;;;;;;15.43;6.30;;;;;;;0.73;nan;101234.84;5039336;28;20128;-72
2024/01/26 05:40:36;;;;;;;16.02;5.55;;;;;;;0.78;nan;101260.38;5041912;28;20151;-73
2024/01/26 05:43:01;;;;;;;18.70;6.00;;;;;;;;;;5046778;28;20087;-73
2024/01/26 05:45:27;;;;;;;17.30;6.38;;;;;;;;;;5037850;28;20032;-74
2024/01/26 05:47:52;;;;;;;17.05;6.72;;;;;;;;;;5039899;28;20474;-73
2024/01/26 05:50:19;;;;;;;22.55;8.73;;;;;;;;;;5038425;28;20037;-74
2024/01/26 05:52:45;;;;;;;25.98;9.75;;;;;;;;;;5038671;28;20152;-71
2024/01/26 05:55:10;;;;;;;27.70;8.82;;;;;;;0.29;nan;101275.13;5038050;28;20131;-74
2024/01/26 05:57:36;;;;;;;25.00;8.82;;;;;;;0.27;nan;101272.69;5040259;28;20398;-73
2024/01/26 06:00:01;;;;;;;26.98;9.50;;;;;;;0.15;nan;101260.81;5038835;28;20045;-72
2024/01/26 06:02:27;;;;;;;24.83;10.15;;;;;;;0.07;nan;101247.72;5038216;28;20399;-69
2024/01/26 06:04:53;;;;;;;26.00;11.20;;;;;;;0.20;nan;101269.81;5038762;28;20129;-69
2024/01/26 06:07:18;;;;;;;33.13;12.07;;;;;;;0.20;nan;101269.00;5042427;28;20059;-69
2024/01/26 06:09:44;;;;;;;29.60;11.60;;;;;;;0.27;nan;101290.00;5040248;28;20029;-70
2024/01/26 06:12:09;;;;;;;34.65;16.48;;;;;;;0.22;nan;101282.63;5041616;28;20419;-74
2024/01/26 06:14:37;;;;;;;39.60;19.90;;;;;;;0.20;nan;101285.34;5038982;28;20562;-70
2024/01/26 06:17:03;;;;;;;36.83;19.95;;;;;;;0.28;nan;101302.00;5041299;28;20024;-71
2024/01/26 06:19:28;;;;;;;38.42;20.65;;;;;;;0.30;nan;101300.91;5042641;28;20043;-71
2024/01/26 06:21:54;;;;;;;35.13;16.55;;;;;;;0.33;nan;101263.53;5040650;28;20030;-70
2024/01/26 06:24:20;;;;;;;39.75;17.20;;;;;;;0.91;nan;101304.13;5037614;28;20079;-70
2024/01/26 06:26:45;;;;;;;45.22;18.30;;;;;;;0.87;nan;101319.16;5042819;28;20029;-70
2024/01/26 06:29:10;;;;;;;35.75;15.05;;;;;;;0.79;nan;101321.63;5040188;28;20030;-69
2024/01/26 06:31:36;;;;;;;32.58;13.45;;;;;;;0.58;nan;101312.22;5039484;28;20053;-69
2024/01/26 06:34:01;;;;;;;27.40;10.82;;;;;;;0.43;nan;101310.97;5040173;28;20021;-70
2024/01/26 06:36:27;;;;;;;22.92;10.40;;;;;;;0.30;nan;101300.91;5041571;28;20056;-68
2024/01/26 06:38:52;;;;;;;24.48;10.65;;;;;;;0.35;nan;101318.63;5042521;28;20036;-72
2024/01/26 06:41:18;;;;;;;29.67;11.07;;;;;;;0.35;nan;101332.41;5045686;28;20035;-71
2024/01/26 06:43:50;;;;;;;32.35;12.88;;;;;;;0.20;nan;101326.78;5043336;28;20233;-69
2024/01/26 06:46:18;;;;;;;35.40;13.80;;;;;;;0.15;nan;101331.56;5048477;28;20059;-68
2024/01/26 06:48:44;;;;;;;37.65;14.75;;;;;;;0.20;nan;101337.16;5043729;28;20033;-67
2024/01/26 06:51:09;;;;;;;41.30;15.52;;;;;;;0.26;nan;101345.34;5045774;28;20025;-67
2024/01/26 06:53:35;;;;;;;57.70;18.58;;;;;;;0.08;nan;101325.28;5046962;28;20032;-68
2024/01/26 06:56:00;;;;;;;37.15;16.52;;;;;;;0.06;nan;101316.81;5043811;28;20021;-67
2024/01/26 06:58:26;;;;;;;42.00;16.38;;;;;;;0.05;nan;101325.56;5041918;28;20703;-68
2024/01/26 07:00:52;;;;;;;42.10;16.90;;;;;;;0.09;nan;101328.69;5041442;28;20039;-69
2024/01/26 07:03:18;;;;;;;32.95;15.20;;;;;;;0.17;nan;101340.03;5041059;28;20029;-68
2024/01/26 07:05:43;;;;;;;35.20;13.70;;;;;;;0.20;nan;101350.09;5039047;28;20021;-69
2024/01/26 07:08:09;;;;;;;34.30;12.85;;;;;;;0.18;nan;101335.66;5054750;28;20450;-67
2024/01/26 07:10:34;;;;;;;38.35;12.65;;;;;;;0.23;nan;101349.00;5044298;28;20036;-69
2024/01/26 07:13:00;;;;;;;38.55;15.02;;;;;;;0.06;nan;101311.63;5040461;28;20017;-67
2024/01/26 07:15:25;;;;;;;32.85;14.48;;;;;;;0.10;nan;101309.63;5043370;28;20029;-68
2024/01/26 07:17:51;;;;;;;30.15;12.40;;;;;;;0.34;nan;101340.31;5043658;28;20021;-69
2024/01/26 07:20:16;;;;;;;35.53;12.85;;;;;;;0.33;nan;101346.44;5036403;28;20053;-69
2024/01/26 07:22:42;;;;;;;37.80;15.15;;;;;;;0.48;nan;101360.66;5038174;28;20043;-69
2024/01/26 07:25:11;;;;;;;36.00;14.18;;;;;;;0.41;nan;101336.25;5036242;28;20033;-68
2024/01/26 07:27:37;;;;;;;;;;;;;;;0.62;nan;101368.03;5037711;28;20071;-70
2024/01/26 07:30:08;;;;;;;33.60;13.98;;;;;;;0.65;nan;101366.94;5038316;28;19921;-69
2024/01/26 07:32:34;;;;;;;45.60;15.07;;;;;;;0.59;nan;101342.38;5039437;28;20147;-70
2024/01/26 07:34:59;;;;;;;48.10;17.02;;;;;;;0.77;nan;101355.47;5037156;28;20029;-70
2024/01/26 07:37:25;;;;;;;50.92;19.15;;;;;;;0.87;nan;101358.06;5037514;28;20094;-70
2024/01/26 07:39:50;;;;;;;40.80;15.57;;;;;;;0.92;nan;101355.06;5037324;28;20091;-70
2024/01/26 07:42:15;;;;;;;30.95;13.30;;;;;;;0.95;nan;101354.78;5037594;28;20033;-71
2024/01/26 07:44:41;;;;;;;32.10;11.60;;;;;;;0.98;nan;101352.72;5037944;28;20438;-69
2024/01/26 07:47:06;;;;;;;19.30;9.23;;;;;;;1.06;nan;101347.66;5036324;28;20622;-70
2024/01/26 07:49:32;;;;;;;32.47;11.55;;;;;;;1.22;nan;101359.22;5034648;28;20095;-72
2024/01/26 07:51:57;;;;;;;29.33;10.25;;;;;;;1.36;nan;101371.75;5043063;28;20032;-69
2024/01/26 07:54:23;;;;;;;19.00;8.25;;;;;;;1.43;nan;101369.41;5033596;28;20049;-70
2024/01/26 07:56:48;;;;;;;22.17;8.50;;;;;;;1.49;nan;101368.88;5035280;28;20112;-70
2024/01/26 07:59:13;;;;;;;26.55;8.68;;;;;;;1.61;nan;101372.94;5035246;28;20076;-69
2024/01/26 08:01:39;;;;;;;23.30;7.63;;;;;;;1.65;nan;101373.44;5039906;28;20025;-69
2024/01/26 08:04:04;;;;;;;16.23;5.93;;;;;;;1.73;nan;101381.34;5038313;28;20094;-70
2024/01/26 08:06:30;;;;;;;17.67;7.50;;;;;;;1.77;nan;101372.31;5037200;28;20021;-71
2024/01/26 08:08:56;;;;;;;18.92;7.03;;;;;;;1.79;nan;101356.59;5035080;28;20049;-71
2024/01/26 08:11:21;;;;;;;18.92;6.93;;;;;;;1.86;nan;101355.88;5037337;28;20041;-71
2024/01/26 08:13:47;;;;;;;22.83;6.53;;;;;;;1.94;nan;101355.16;5039225;28;20025;-70
2024/01/26 08:16:15;;;;;;;21.42;7.50;;;;;;;2.13;nan;101367.19;5039166;28;20025;-70
2024/01/26 08:18:41;;;;;;;18.27;6.00;;;;;;;2.15;nan;101362.69;5037664;28;20509;-69
2024/01/26 08:21:08;;;;;;;21.73;6.68;;;;;;;2.09;nan;101345.09;5037687;28;20349;-70
2024/01/26 08:23:33;;;;;;;20.20;6.20;;;;;;;2.32;nan;101369.72;5037084;28;20036;-69
2024/01/26 08:25:58;;;;;;;16.80;6.28;;;;;;;2.15;nan;101338.50;5037966;28;20024;-69
2024/01/26 08:28:24;;;;;;;17.70;6.50;;;;;;;2.23;nan;101352.41;5040311;28;20467;-69
2024/01/26 08:30:49;;;;;;;20.23;7.15;;;;;;;2.42;nan;101372.25;5037358;28;20021;-69
2024/01/26 08:33:15;;;;;;;20.48;7.05;;;;;;;2.52;nan;101365.19;5037096;28;20017;-70
2024/01/26 08:35:40;;;;;;;18.05;6.63;;;;;;;2.62;nan;101370.31;5037746;28;20900;-69
2024/01/26 08:38:06;;;;;;;15.38;5.90;;;;;;;2.80;nan;101379.88;5037381;28;20384;-69
2024/01/26 08:40:31;;;;;;;13.70;5.55;;;;;;;2.74;nan;101358.72;5035796;28;20029;-69
2024/01/26 08:42:56;;;;;;;20.33;6.80;;;;;;;2.87;nan;101363.53;5039058;28;20029;-69
2024/01/26 08:45:22;;;;;;;13.45;5.90;;;;;;;3.03;nan;101378.47;5035758;28;20033;-70
2024/01/26 08:47:47;;;;;;;18.55;5.15;;;;;;;3.00;nan;101385.75;5039866;28;20028;-68
2024/01/26 08:50:13;;;;;;;16.98;5.15;;;;;;;3.01;nan;101393.41;5038925;28;20026;-70
2024/01/26 08:52:38;;;;;;;18.02;5.40;;;;;;;3.11;nan;101395.91;5037866;28;20075;-69
2024/01/26 08:55:04;;;;;;;14.50;5.38;;;;;;;3.12;nan;101403.56;5037759;28;20066;-72
2024/01/26 08:57:30;;;;;;;17.52;5.30;;;;;;;3.20;nan;101413.22;5037015;28;20036;-70
2024/01/26 08:59:55;;;;;;;20.38;5.35;;;;;;;3.05;nan;101389.53;5036630;28;20029;-68
2024/01/26 09:02:21;;;;;;;15.80;5.40;;;;;;;3.19;nan;101403.78;5038573;28;20041;-70
2024/01/26 09:04:47;;;;;;;20.60;5.97;;;;;;;3.04;nan;101374.91;5041196;28;20151;-71
2024/01/26 09:07:17;;;;;;;16.05;5.22;;;;;;;3.18;nan;101402.97;5041162;28;20035;-68
2024/01/26 09:09:43;;;;;;;15.50;5.32;;;;;;;3.19;nan;101398.59;5038992;28;20048;-68
2024/01/26 09:12:08;;;;;;;18.92;6.00;;;;;;;3.34;nan;101398.84;5034713;28;20032;-68
2024/01/26 09:14:34;;;;;;;17.92;4.80;;;;;;;3.45;nan;101389.94;5035781;28;20037;-70
2024/01/26 09:17:00;;;;;;;15.25;5.35;;;;;;;3.46;nan;101408.03;5042347;28;20564;-67
2024/01/26 09:19:26;;;;;;;14.90;5.40;;;;;;;3.35;nan;101388.28;5038503;28;20032;-70
2024/01/26 09:21:51;;;;;;;20.60;5.93;;;;;;;3.51;nan;101397.16;5037624;28;20029;-68
2024/01/26 09:24:17;;;;;;;25.17;7.10;;;;;;;3.54;nan;101402.06;5038690;28;20056;-69
2024/01/26 09:26:42;;;;;;;13.80;5.47;;;;;;;3.50;nan;101396.34;5040477;28;20038;-69
2024/01/26 09:29:08;;;;;;;11.25;4.95;;;;;;;3.56;nan;101395.72;5037228;28;20666;-69
2024/01/26 09:31:33;;;;;;;18.40;5.25;;;;;;;3.68;nan;101405.88;5038722;28;20029;-70
2024/01/26 09:33:59;;;;;;;13.10;4.85;;;;;;;3.69;nan;101399.69;5039069;28;20026;-70
2024/01/26 09:36:24;;;;;;;18.27;5.75;;;;;;;3.83;nan;101412.97;5042304;28;20196;-70
2024/01/26 09:38:50;;;;;;;14.70;5.82;;;;;;;3.94;nan;101427.50;5035792;28;20079;-69
2024/01/26 09:41:16;;;;;;;14.68;5.05;;;;;;;3.91;nan;101408.78;5041510;28;20029;-70
2024/01/26 09:43:42;;;;;;;14.45;4.82;;;;;;;4.04;nan;101414.34;5034240;28;20029;-69
2024/01/26 09:46:08;;;;;;;14.85;5.05;;;;;;;4.15;nan;101421.91;5038631;28;20025;-70
2024/01/26 09:48:34;;;;;;;17.27;5.47;;;;;;;4.09;nan;101406.06;5043123;28;20037;-70
2024/01/26 09:51:00;;;;;;;17.02;4.78;;;;;;;4.17;nan;101416.53;5039540;28;20071;-70
2024/01/26 09:53:26;;;;;;;17.05;5.13;;;;;;;4.31;nan;101421.16;5037524;28;20026;-69
2024/01/26 09:55:52;;;;;;;19.35;5.53;;;;;;;4.36;nan;101412.88;5037520;28;20029;-71
2024/01/26 09:58:18;;;;;;;23.70;6.20;;;;;;;4.45;nan;101414.47;5037874;28;20100;-71
2024/01/26 10:00:45;;;;;;;15.98;4.38;;;;;;;4.39;nan;101399.50;5038936;28;20501;-70
2024/01/26 10:03:11;;;;;;;18.33;5.15;;;;;;;4.57;nan;101418.41;5039863;28;20135;-70
2024/01/26 10:05:37;;;;;;;14.10;4.75;;;;;;;4.51;nan;101406.03;5040649;28;20112;-70
2024/01/26 10:08:10;;;;;;;14.20;4.30;;;;;;;4.54;nan;101404.91;5038512;28;20037;-71
2024/01/26 10:10:36;;;;;;;10.35;4.22;;;;;;;4.61;nan;101411.09;5036612;28;20372;-69
2024/01/26 10:13:05;;;;;;;18.65;5.55;;;;;;;4.56;nan;101390.72;5038210;28;20048;-69
2024/01/26 10:15:30;;;;;;;17.88;5.68;;;;;;;4.62;nan;101374.44;5037302;28;20504;-69
2024/01/26 10:17:55;;;;;;;15.43;5.28;;;;;;;4.81;nan;101393.34;5038556;28;20021;-69
2024/01/26 10:20:21;;;;;;;17.65;5.70;;;;;;;4.87;nan;101382.28;5039160;28;20163;-70
2024/01/26 10:22:47;;;;;;;11.95;4.30;;;;;;;4.96;nan;101391.75;5038025;28;20136;-69
2024/01/26 10:25:13;;;;;;;10.80;3.97;;;;;;;5.05;nan;101392.53;5045251;28;20031;-69
2024/01/26 10:27:39;;;;;;;21.77;4.97;;;;;;;5.17;nan;101403.47;5037310;28;20028;-70
2024/01/26 10:30:06;;;;;;;20.63;4.95;;;;;;;5.19;nan;101394.47;5040864;28;20036;-69
2024/01/26 10:32:32;;;;;;;10.50;4.32;;;;;;;5.13;nan;101391.75;5036597;28;20414;-70
2024/01/26 10:35:02;;;;;;;12.95;4.32;;;;;;;5.18;nan;101394.66;5038336;28;20029;-69
2024/01/26 10:37:30;;;;;;;16.80;4.60;;;;;;;5.13;nan;101381.28;5039997;28;20053;-69
2024/01/26 10:39:56;;;;;;;14.25;4.53;;;;;;;5.26;nan;101392.84;5039266;28;20037;-69
2024/01/26 10:42:23;;;;;;;16.42;5.40;;;;;;;5.36;nan;101395.28;5046434;28;20025;-70
2024/01/26 10:44:50;;;;;;;21.00;4.85;;;;;;;5.42;nan;101388.59;5042146;28;20026;-69
2024/01/26 10:47:20;;;;;;;13.40;4.70;;;;;;;5.54;nan;101405.53;5050239;28;20105;-68
2024/01/26 10:49:49;;;;;;;15.52;4.53;;;;;;;5.58;nan;101400.78;5042438;28;20097;-72
2024/01/26 10:52:24;;;;;;;12.07;4.68;;;;;;;5.67;nan;101400.59;5042761;28;20024;-69
2024/01/26 10:54:51;;;;;;;17.27;5.60;;;;;;;5.65;nan;101388.69;5039718;28;20099;-66
2024/01/26 10:57:19;;;;;;;19.80;4.80;;;;;;;5.69;nan;101390.78;5604270;23;20098;-74
2024/01/26 10:59:45;;;;;;;20.65;6.22;;;;;;;5.53;nan;101373.38;4979672;28;20062;-72
2024/01/26 11:02:21;;;;;;;26.33;8.55;;;;;;;5.68;nan;101389.19;4979086;28;20026;-73
2024/01/26 11:04:46;;;;;;;27.15;7.88;;;;;;;5.59;nan;101373.69;4982871;28;20491;-73
2024/01/26 11:07:13;;;;;;;12.20;5.28;;;;;;;5.43;nan;101356.25;4981787;28;20061;-72
2024/01/26 11:09:38;;;;;;;20.90;6.47;;;;;;;5.54;nan;101375.00;4968390;28;20049;-72
2024/01/26 11:12:22;;;;;;;16.23;5.30;;;;;;;5.76;nan;101383.09;4979358;28;20031;-73
2024/01/26 11:15:03;;;;;;;15.68;7.10;;;;;;;5.62;nan;101361.09;4979033;28;20037;-73
2024/01/26 11:17:40;;;;;;;12.98;5.32;;;;;;;5.72;nan;101364.34;4981229;28;20044;-73
2024/01/26 11:20:11;;;;;;;17.58;5.13;;;;;;;5.79;nan;101366.25;4982286;28;20089;-73
2024/01/26 11:22:37;;;;;;;18.92;6.20;;;;;;;5.90;nan;101366.72;4970231;28;20484;-73
2024/01/26 11:25:02;;;;;;;14.48;4.80;;;;;;;5.97;nan;101362.47;4965925;28;20030;-73
2024/01/26 11:27:28;;;;;;;17.13;5.15;;;;;;;5.98;nan;101350.19;4978964;28;20537;-73
2024/01/26 11:29:53;;;;;;;13.45;5.15;;;;;;;6.05;nan;101340.69;4979743;28;20089;-73
2024/01/26 11:32:19;;;;;;;17.08;6.10;;;;;;;6.16;nan;101353.38;4981885;28;20034;-73
2024/01/26 11:35:02;;;;;;;12.20;5.10;;;;;;;6.10;nan;101354.06;4963872;28;20037;-72
2024/01/26 11:37:28;;;;;;;12.82;5.28;;;;;;;6.10;nan;101356.66;4980839;28;20105;-72
2024/01/26 11:39:55;;;;;;;16.25;4.82;;;;;;;6.05;nan;101334.66;4980900;28;20141;-72
2024/01/26 11:42:20;;;;;;;13.70;5.35;;;;;;;6.12;nan;101335.59;4979064;28;20061;-73
2024/01/26 11:45:11;;;;;;;14.25;4.43;;;;;;;6.36;nan;101352.94;4977656;28;20633;-73